CDF2 weather

Teeswater (Dent Field)
Ontario, Canada

Public forecast

Using degrees Celsius for public forecast. Weather courtesy of forecast.io.

METAR (pilot weather report)

Closest report is Wiarton Airport, 45.8 nm (84.9 km) N. Retrieved 2019/07/24 08:00 UTC (47 minutes ago):

CYVV 240800Z 18005KT 1/2SM FG SKC 12/12 A3002 RMK FG4 WND ESTD SLP168

TAF (pilot weather forecast)

Forecast is more than 12 hours old.

Closest forecast is Wiarton Airport, 45.8 nm (84.9 km) N. Retrieved 2019/07/23 20:00 UTC (13 hours ago):

TAF CYVV 231938Z 2320/2323 36008KT P6SM SCT100 BECMG 2320/2322 31008KT RMK NXT FCST WILL BE ISSUED AT 241045Z